createdAt,value
2022-11-05T00:00:41.905Z,70.72
2022-11-05T00:01:42.063Z,70.81
2022-11-05T00:02:41.946Z,71.11
2022-11-05T00:03:41.833Z,71.11
2022-11-05T00:04:41.991Z,71.11
2022-11-05T00:05:42.010Z,70.72
2022-11-05T00:06:42.032Z,71.3
2022-11-05T00:07:42.064Z,71.58
2022-11-05T00:08:42.071Z,71.58
2022-11-05T00:09:42.113Z,71.48
2022-11-05T00:10:42.219Z,71.48
2022-11-05T00:11:42.138Z,71.68
2022-11-05T00:12:42.162Z,71.58
2022-11-05T00:13:42.185Z,71.48
2022-11-05T00:14:42.198Z,71.58
2022-11-05T00:15:42.228Z,71.11
2022-11-05T00:16:41.989Z,71.3
2022-11-05T00:17:42.006Z,71.3
2022-11-05T00:18:42.285Z,71.3
2022-11-05T00:19:42.299Z,71.39
2022-11-05T00:20:42.328Z,71.77
2022-11-05T00:21:42.351Z,71.45
2022-11-05T00:22:42.106Z,71.68
2022-11-05T00:23:42.133Z,71.83
2022-11-05T00:24:42.404Z,71.73
2022-11-05T00:25:42.176Z,71.73
2022-11-05T00:26:42.505Z,71.87
2022-11-05T00:27:42.211Z,71.68
2022-11-05T00:28:42.490Z,71.83
2022-11-05T00:29:42.518Z,71.55
2022-11-05T00:30:42.542Z,71.73
2022-11-05T00:31:42.300Z,72.12
2022-11-05T00:32:42.576Z,72.31
2022-11-05T00:33:42.593Z,72.12
2022-11-05T00:34:42.631Z,71.93
2022-11-05T00:35:42.627Z,71.93
2022-11-05T00:36:42.400Z,72.12
2022-11-05T00:37:49.981Z,72.02
2022-11-05T00:38:42.702Z,71.83
2022-11-05T00:39:42.718Z,72.12
2022-11-05T00:40:42.735Z,71.93
2022-11-05T00:41:42.759Z,72.12
2022-11-05T00:42:43.050Z,71.93
2022-11-05T00:43:42.798Z,72.02
2022-11-05T00:44:43.025Z,72.12
2022-11-05T00:45:42.836Z,71.93
2022-11-05T00:46:42.862Z,71.93
2022-11-05T00:47:42.886Z,72.12
2022-11-05T00:48:42.905Z,71.73
2022-11-05T00:49:42.919Z,71.83
2022-11-05T00:50:42.691Z,71.93
2022-11-05T00:51:42.962Z,72.12
2022-11-05T00:52:42.987Z,72.22
2022-11-05T00:53:42.744Z,72.31
2022-11-05T00:54:43.050Z,72.02
2022-11-05T00:55:43.044Z,72.22
2022-11-05T00:56:43.076Z,72.41
2022-11-05T00:57:43.085Z,72.22
2022-11-05T00:58:43.157Z,72.12
2022-11-05T00:59:42.866Z,72.31
2022-11-05T01:00:43.162Z,72.69
2022-11-05T01:01:43.144Z,72.6
2022-11-05T01:02:43.484Z,72.22
2022-11-05T01:03:46.201Z,72.5
2022-11-05T01:04:43.229Z,72.6
2022-11-05T01:05:43.244Z,72.41
2022-11-05T01:06:43.273Z,72.6
2022-11-05T01:07:43.293Z,72.5
2022-11-05T01:08:43.307Z,72.5
2022-11-05T01:09:43.325Z,72.6
2022-11-05T01:10:43.094Z,72.41
2022-11-05T01:11:43.378Z,72.31
2022-11-05T01:12:43.393Z,72.22
2022-11-05T01:13:43.159Z,72.31
2022-11-05T01:14:43.471Z,72.5
2022-11-05T01:15:43.469Z,72.41
2022-11-05T01:16:43.218Z,72.41
2022-11-05T01:17:43.493Z,72.6
2022-11-05T01:18:43.257Z,72.69
2022-11-05T01:19:43.541Z,72.69
2022-11-05T01:20:43.295Z,72.6
2022-11-05T01:21:43.576Z,72.79
2022-11-05T01:22:43.594Z,72.5
2022-11-05T01:23:43.619Z,72.88
2022-11-05T01:24:43.377Z,73.17
2022-11-05T01:25:43.656Z,73.27
2022-11-05T01:26:43.674Z,73.27
2022-11-05T01:27:43.700Z,72.98
2022-11-05T01:28:43.936Z,73.04
2022-11-05T01:29:43.481Z,72.85
2022-11-05T01:30:43.910Z,72.98
2022-11-05T01:31:43.781Z,72.79
2022-11-05T01:32:43.792Z,72.94
2022-11-05T01:33:43.823Z,73.14
2022-11-05T01:34:44.190Z,73.14
2022-11-05T01:35:43.601Z,72.94
2022-11-05T01:36:43.881Z,72.98
2022-11-05T01:37:43.638Z,73.61
2022-11-05T01:38:43.658Z,73.43
2022-11-05T01:39:43.939Z,73.14
2022-11-05T01:40:44.299Z,73.52
2022-11-05T01:41:43.725Z,73.04
2022-11-05T01:42:44.000Z,73.23
2022-11-05T01:43:44.017Z,73.04
2022-11-05T01:44:44.326Z,73.14
2022-11-05T01:45:44.057Z,73.8
2022-11-05T01:46:44.221Z,73.71
2022-11-05T01:47:44.101Z,73.71
2022-11-05T01:48:43.861Z,73.61
2022-11-05T01:49:43.882Z,73.43
2022-11-05T01:50:44.156Z,73.71
2022-11-05T01:51:44.178Z,73.71
2022-11-05T01:52:44.210Z,73.61
2022-11-05T01:53:44.213Z,73.71
2022-11-05T01:54:44.250Z,73.61
2022-11-05T01:55:44.254Z,73.61
2022-11-05T01:56:44.283Z,73.61
2022-11-05T01:57:44.293Z,73.9
2022-11-05T01:58:44.065Z,73.8
2022-11-05T01:59:44.343Z,73.71
2022-11-05T02:00:44.110Z,73.43
2022-11-05T02:01:44.339Z,73.61
2022-11-05T02:02:44.786Z,73.52
2022-11-05T02:03:44.427Z,73.52
2022-11-05T02:04:44.434Z,73.61
2022-11-05T02:05:44.460Z,73.71
2022-11-05T02:06:44.503Z,73.61
2022-11-05T02:07:44.515Z,73.61
2022-11-05T02:08:44.271Z,73.61
2022-11-05T02:09:44.294Z,73.52
2022-11-05T02:10:44.562Z,73.61
2022-11-05T02:11:44.582Z,73.71
2022-11-05T02:12:44.598Z,73.52
2022-11-05T02:13:44.626Z,73.52
2022-11-05T02:14:44.640Z,73.61
2022-11-05T02:15:44.658Z,73.61
2022-11-05T02:16:44.685Z,73.8
2022-11-05T02:17:44.721Z,73.9
2022-11-05T02:18:44.778Z,73.52
2022-11-05T02:19:44.745Z,73.61
2022-11-05T02:20:48.052Z,73.61
2022-11-05T02:21:44.520Z,73.61
2022-11-05T02:22:44.790Z,73.61
2022-11-05T02:23:44.567Z,73.61
2022-11-05T02:24:44.583Z,73.71
2022-11-05T02:25:44.601Z,74.19
2022-11-05T02:26:44.871Z,74.19
2022-11-05T02:27:44.924Z,74.19
2022-11-05T02:28:44.658Z,73.99
2022-11-05T02:29:44.681Z,73.99
2022-11-05T02:30:44.956Z,74.09
2022-11-05T02:31:45.004Z,73.9
2022-11-05T02:32:44.994Z,74.28
2022-11-05T02:33:45.033Z,73.99
2022-11-05T02:34:45.097Z,73.99
2022-11-05T02:35:45.062Z,74.48
2022-11-05T02:36:45.078Z,73.9
2022-11-05T02:37:44.845Z,74.09
2022-11-05T02:38:45.128Z,74.57
2022-11-05T02:39:45.166Z,74.28
2022-11-05T02:40:44.899Z,74.19
2022-11-05T02:41:45.177Z,74.19
2022-11-05T02:42:45.195Z,74.19
2022-11-05T02:43:45.220Z,74.28
2022-11-05T02:44:45.030Z,74.28
2022-11-05T02:45:45.261Z,74.15
2022-11-05T02:46:45.268Z,73.9
2022-11-05T02:47:45.032Z,74.28
2022-11-05T02:48:45.059Z,74.09
2022-11-05T02:49:45.336Z,74.09
2022-11-05T02:50:45.498Z,73.99
2022-11-05T02:51:45.374Z,74.09
2022-11-05T02:52:45.389Z,74.09
2022-11-05T02:53:45.413Z,74.09
2022-11-05T02:54:45.440Z,74.19
2022-11-05T02:55:45.202Z,74.19
2022-11-05T02:56:45.475Z,74.63
2022-11-05T02:57:45.493Z,74.57
2022-11-05T02:58:45.517Z,74.57
2022-11-05T02:59:45.537Z,74.38
2022-11-05T03:00:45.552Z,74.53
2022-11-05T03:01:45.800Z,74.34
2022-11-05T03:02:45.986Z,74.48
2022-11-05T03:03:45.364Z,74.44
2022-11-05T03:04:45.635Z,74.24
2022-11-05T03:05:45.390Z,74.38
2022-11-05T03:06:45.944Z,74.24
2022-11-05T03:07:45.706Z,74.28
2022-11-05T03:08:45.455Z,74.19
2022-11-05T03:09:45.482Z,75.05
2022-11-05T03:10:45.956Z,74.85
2022-11-05T03:11:45.766Z,74.76
2022-11-05T03:12:45.795Z,74.63
2022-11-05T03:13:45.553Z,74.73
2022-11-05T03:14:45.826Z,74.63
2022-11-05T03:15:45.852Z,74.73
2022-11-05T03:16:45.867Z,74.76
2022-11-05T03:17:45.888Z,74.73
2022-11-05T03:18:46.047Z,74.57
2022-11-05T03:19:46.130Z,74.73
2022-11-05T03:20:45.953Z,74.95
2022-11-05T03:21:45.710Z,74.73
2022-11-05T03:22:46.048Z,74.91
2022-11-05T03:23:46.004Z,74.73
2022-11-05T03:24:46.032Z,74.34
2022-11-05T03:25:46.041Z,74.63
2022-11-05T03:26:46.066Z,74.73
2022-11-05T03:27:45.831Z,74.44
2022-11-05T03:28:45.850Z,74.73
2022-11-05T03:29:46.126Z,74.63
2022-11-05T03:30:46.146Z,74.44
2022-11-05T03:31:46.162Z,74.44
2022-11-05T03:32:46.187Z,74.44
2022-11-05T03:33:45.947Z,74.34
2022-11-05T03:34:45.966Z,74.44
2022-11-05T03:35:46.240Z,74.53
2022-11-05T03:36:46.264Z,74.63
2022-11-05T03:37:46.285Z,74.24
2022-11-05T03:38:46.352Z,74.63
2022-11-05T03:39:46.319Z,74.34
2022-11-05T03:40:46.338Z,74.53
2022-11-05T03:41:46.359Z,74.53
2022-11-05T03:42:46.378Z,74.53
2022-11-05T03:43:46.137Z,74.53
2022-11-05T03:44:46.463Z,74.53
2022-11-05T03:45:46.437Z,74.44
2022-11-05T03:46:46.198Z,74.63
2022-11-05T03:47:46.482Z,74.63
2022-11-05T03:48:46.513Z,75.2
2022-11-05T03:49:46.260Z,75.3
2022-11-05T03:50:46.535Z,75.1
2022-11-05T03:51:46.292Z,75.01
2022-11-05T03:52:46.573Z,75.2
2022-11-05T03:53:46.593Z,75.01
2022-11-05T03:54:46.748Z,75.2
2022-11-05T03:55:46.633Z,75.2
2022-11-05T03:56:46.641Z,75.2
2022-11-05T03:57:46.672Z,74.82
2022-11-05T03:58:46.688Z,75.01
2022-11-05T03:59:46.709Z,75.01
2022-11-05T04:00:46.472Z,75.01
2022-11-05T04:01:46.954Z,75.01
2022-11-05T04:02:47.194Z,74.63
2022-11-05T04:03:46.790Z,74.73
2022-11-05T04:04:46.803Z,75.1
2022-11-05T04:05:46.831Z,74.73
2022-11-05T04:06:46.839Z,75.3
2022-11-05T04:07:46.864Z,75.2
2022-11-05T04:08:46.877Z,75.3
2022-11-05T04:09:46.904Z,75.3
2022-11-05T04:10:46.965Z,75.2
2022-11-05T04:11:46.944Z,75.01
2022-11-05T04:12:46.961Z,75.01
2022-11-05T04:13:46.722Z,75.2
2022-11-05T04:14:46.998Z,75.01
2022-11-05T04:15:47.016Z,75.01
2022-11-05T04:16:47.038Z,75.3
2022-11-05T04:17:46.804Z,75.3
2022-11-05T04:18:46.816Z,74.91
2022-11-05T04:19:47.095Z,75.1
2022-11-05T04:20:46.858Z,75.01
2022-11-05T04:21:47.143Z,75.2
2022-11-05T04:22:47.156Z,75.3
2022-11-05T04:23:47.177Z,75.3
2022-11-05T04:24:47.187Z,75.3
2022-11-05T04:25:47.228Z,75.2
2022-11-05T04:26:47.269Z,75.2
2022-11-05T04:27:47.001Z,75.3
2022-11-05T04:28:47.270Z,75.3
2022-11-05T04:29:47.283Z,75.39
2022-11-05T04:30:47.301Z,75.1
2022-11-05T04:31:47.324Z,75.01
2022-11-05T04:32:47.337Z,75.3
2022-11-05T04:33:47.105Z,75.2
2022-11-05T04:34:47.405Z,75.39
2022-11-05T04:35:47.141Z,75.39
2022-11-05T04:36:47.431Z,75.39
2022-11-05T04:37:47.452Z,75.49
2022-11-05T04:38:47.469Z,75.59
2022-11-05T04:39:47.485Z,75.54
2022-11-05T04:40:47.500Z,75.3
2022-11-05T04:41:47.521Z,75.07
2022-11-05T04:42:47.688Z,75.3
2022-11-05T04:43:47.545Z,75.3
2022-11-05T04:44:47.777Z,75.1
2022-11-05T04:45:47.591Z,75.1
2022-11-05T04:46:47.615Z,75.1
2022-11-05T04:47:47.628Z,75.26
2022-11-05T04:48:47.653Z,75.1
2022-11-05T04:49:47.672Z,75.1
2022-11-05T04:50:47.687Z,75.3
2022-11-05T04:51:47.448Z,75.87
2022-11-05T04:52:47.727Z,76.06
2022-11-05T04:53:47.749Z,75.93
2022-11-05T04:54:47.765Z,75.64
2022-11-05T04:55:47.533Z,75.87
2022-11-05T04:56:47.546Z,75.78
2022-11-05T04:57:47.823Z,75.64
2022-11-05T04:58:47.885Z,75.64
2022-11-05T04:59:47.866Z,75.64
2022-11-05T05:00:47.815Z,75.64
2022-11-05T05:01:48.054Z,75.54
2022-11-05T05:02:47.667Z,75.64
2022-11-05T05:03:47.934Z,75.54
2022-11-05T05:04:47.959Z,75.83
2022-11-05T05:05:47.713Z,75.45
2022-11-05T05:06:48.126Z,75.45
2022-11-05T05:07:47.758Z,75.64
2022-11-05T05:08:48.037Z,75.64
2022-11-05T05:09:48.049Z,75.64
2022-11-05T05:10:48.082Z,75.45
2022-11-05T05:11:47.831Z,75.45
2022-11-05T05:12:47.853Z,75.64
2022-11-05T05:13:48.124Z,75.74
2022-11-05T05:14:48.205Z,76.03
2022-11-05T05:15:48.166Z,75.45
2022-11-05T05:16:47.929Z,75.45
2022-11-05T05:17:48.209Z,75.54
2022-11-05T05:18:48.791Z,75.64
2022-11-05T05:19:48.244Z,75.54
2022-11-05T05:20:48.271Z,76.03
2022-11-05T05:21:48.276Z,75.54
2022-11-05T05:22:48.304Z,75.64
2022-11-05T05:23:48.326Z,75.93
2022-11-05T05:24:54.568Z,76.03
2022-11-05T05:25:48.410Z,76.03
2022-11-05T05:26:48.379Z,75.83
2022-11-05T05:27:48.138Z,75.74
2022-11-05T05:28:48.157Z,75.93
2022-11-05T05:29:48.179Z,75.93
2022-11-05T05:30:48.686Z,75.93
2022-11-05T05:31:48.228Z,75.93
2022-11-05T05:32:48.485Z,75.93
2022-11-05T05:33:48.254Z,76.03
2022-11-05T05:34:48.268Z,75.64
2022-11-05T05:35:48.543Z,75.93
2022-11-05T05:36:48.565Z,75.74
2022-11-05T05:37:48.327Z,75.83
2022-11-05T05:38:48.347Z,75.93
2022-11-05T05:39:48.632Z,75.83
2022-11-05T05:40:48.382Z,75.74
2022-11-05T05:41:48.657Z,75.64
2022-11-05T05:42:48.416Z,75.74
2022-11-05T05:43:48.702Z,75.83
2022-11-05T05:44:48.919Z,75.74
2022-11-05T05:45:48.737Z,75.83
2022-11-05T05:46:48.824Z,76.31
2022-11-05T05:47:48.772Z,75.74
2022-11-05T05:48:48.782Z,75.74
2022-11-05T05:49:48.569Z,76.5
2022-11-05T05:50:48.575Z,76.31
2022-11-05T05:51:48.854Z,76.31
2022-11-05T05:52:48.864Z,76.21
2022-11-05T05:53:48.884Z,76.31
2022-11-05T05:54:48.903Z,76.31
2022-11-05T05:55:48.672Z,75.83
2022-11-05T05:56:48.949Z,76.21
2022-11-05T05:57:48.970Z,76.21
2022-11-05T05:58:48.974Z,76.21
2022-11-05T05:59:49.004Z,76.4
2022-11-05T06:00:49.024Z,76.31
2022-11-05T06:01:49.256Z,76.31
2022-11-05T06:02:49.475Z,76.12
2022-11-05T06:03:49.078Z,76.21
2022-11-05T06:04:49.086Z,76.31
2022-11-05T06:05:49.110Z,76.03
2022-11-05T06:06:48.872Z,76.21
2022-11-05T06:07:49.157Z,76.12
2022-11-05T06:08:49.211Z,76.21
2022-11-05T06:09:49.187Z,76.21
2022-11-05T06:10:49.295Z,76.21
2022-11-05T06:11:49.225Z,76.03
2022-11-05T06:12:49.238Z,76.21
2022-11-05T06:13:49.261Z,76.31
2022-11-05T06:14:49.289Z,76.03
2022-11-05T06:15:49.037Z,76.12
2022-11-05T06:16:49.314Z,76.12
2022-11-05T06:17:49.335Z,76.03
2022-11-05T06:18:49.568Z,76.12
2022-11-05T06:19:49.365Z,76.03
2022-11-05T06:20:49.391Z,76.21
2022-11-05T06:21:49.402Z,76.03
2022-11-05T06:22:49.433Z,76.03
2022-11-05T06:23:49.451Z,76.12
2022-11-05T06:24:49.206Z,76.6
2022-11-05T06:25:49.486Z,76.03
2022-11-05T06:26:49.506Z,76.03
2022-11-05T06:27:49.520Z,76.69
2022-11-05T06:28:49.586Z,76.12
2022-11-05T06:29:49.556Z,76.69
2022-11-05T06:30:49.581Z,76.31
2022-11-05T06:31:49.340Z,76.4
2022-11-05T06:32:49.623Z,76.08
2022-11-05T06:33:49.657Z,76.46
2022-11-05T06:34:49.702Z,76.03
2022-11-05T06:35:49.669Z,76.12
2022-11-05T06:36:49.429Z,76.21
2022-11-05T06:37:49.716Z,76.08
2022-11-05T06:38:49.483Z,76.21
2022-11-05T06:39:49.748Z,76.12
2022-11-05T06:40:49.767Z,76.12
2022-11-05T06:42:19.647Z,76.12
2022-11-05T06:42:49.795Z,75.98
2022-11-05T06:43:49.824Z,76.18
2022-11-05T06:44:50.245Z,76.21
2022-11-05T06:45:49.854Z,76.12
2022-11-05T06:46:51.214Z,76.21
2022-11-05T06:47:49.890Z,76.31
2022-11-05T06:48:49.698Z,76.31
2022-11-05T06:49:49.929Z,76.31
2022-11-05T06:50:50.007Z,76.21
2022-11-05T06:51:49.708Z,76.21
2022-11-05T06:52:49.989Z,76.21
2022-11-05T06:53:50.000Z,76.18
2022-11-05T06:54:50.025Z,76.21
2022-11-05T06:55:49.779Z,76.27
2022-11-05T06:56:49.805Z,75.79
2022-11-05T06:57:50.078Z,76.27
2022-11-05T06:58:50.097Z,76.27
2022-11-05T06:59:50.114Z,76.08
2022-11-05T07:00:50.330Z,76.27
2022-11-05T07:01:50.458Z,76.27
2022-11-05T07:02:50.172Z,76.31
2022-11-05T07:03:50.187Z,76.18
2022-11-05T07:04:50.210Z,76.27
2022-11-05T07:05:49.980Z,76.46
2022-11-05T07:06:50.288Z,75.64
2022-11-05T07:07:50.265Z,76.18
2022-11-05T07:08:50.021Z,75.6
2022-11-05T07:09:50.298Z,75.6
2022-11-05T07:10:50.319Z,75.79
2022-11-05T07:11:50.342Z,75.7
2022-11-05T07:12:50.365Z,75.7
2022-11-05T07:13:50.373Z,75.7
2022-11-05T07:14:50.388Z,75.79
2022-11-05T07:15:50.410Z,75.6
2022-11-05T07:16:50.434Z,75.7
2022-11-05T07:17:50.455Z,75.98
2022-11-05T07:18:50.214Z,75.6
2022-11-05T07:19:50.235Z,75.6
2022-11-05T07:20:50.260Z,75.79
2022-11-05T07:21:50.519Z,75.89
2022-11-05T07:22:50.599Z,75.64
2022-11-05T07:23:50.404Z,75.7
2022-11-05T07:24:50.578Z,75.7
2022-11-05T07:25:50.606Z,75.7
2022-11-05T07:26:50.627Z,75.74
2022-11-05T07:27:50.379Z,75.6
2022-11-05T07:28:50.403Z,75.6
2022-11-05T07:29:50.414Z,75.7
2022-11-05T07:30:50.695Z,75.79
2022-11-05T07:31:50.710Z,75.89
2022-11-05T07:32:50.727Z,75.6
2022-11-05T07:33:50.751Z,75.6
2022-11-05T07:34:50.508Z,75.6
2022-11-05T07:35:50.784Z,75.7
2022-11-05T07:36:50.548Z,75.7
2022-11-05T07:37:50.821Z,75.6
2022-11-05T07:38:51.701Z,75.6
2022-11-05T07:39:50.857Z,75.93
2022-11-05T07:40:50.876Z,75.7
2022-11-05T07:41:50.631Z,75.7
2022-11-05T07:42:50.913Z,75.89
2022-11-05T07:43:50.932Z,75.89
2022-11-05T07:44:51.151Z,75.83
2022-11-05T07:45:50.714Z,75.98
2022-11-05T07:46:50.988Z,75.89
2022-11-05T07:47:50.748Z,75.7
2022-11-05T07:48:51.019Z,76.03
2022-11-05T07:49:50.809Z,75.83
2022-11-05T07:50:51.063Z,75.98
2022-11-05T07:51:50.821Z,75.93
2022-11-05T07:52:51.096Z,75.79
2022-11-05T07:53:50.862Z,75.83
2022-11-05T07:54:51.265Z,75.79
2022-11-05T07:55:51.154Z,75.93
2022-11-05T07:56:51.176Z,75.98
2022-11-05T07:57:51.199Z,75.93
2022-11-05T07:58:50.951Z,75.98
2022-11-05T07:59:51.226Z,76.03
2022-11-05T08:00:51.663Z,75.98
2022-11-05T08:01:51.673Z,76.03
2022-11-05T08:02:51.730Z,75.74
2022-11-05T08:03:51.098Z,75.45
2022-11-05T08:04:51.329Z,75.45
2022-11-05T08:05:51.092Z,75.45
2022-11-05T08:06:51.397Z,75.54
2022-11-05T08:07:51.377Z,75.45
2022-11-05T08:08:51.407Z,75.83
2022-11-05T08:09:51.156Z,75.74
2022-11-05T08:10:51.494Z,75.64
2022-11-05T08:11:58.562Z,75.74
2022-11-05T08:12:51.477Z,75.74
2022-11-05T08:13:51.497Z,75.74
2022-11-05T08:14:51.249Z,75.64
2022-11-05T08:15:51.523Z,75.93
2022-11-05T08:16:51.555Z,75.83
2022-11-05T08:17:51.308Z,75.93
2022-11-05T08:18:51.587Z,75.83
2022-11-05T08:19:51.599Z,74.98
2022-11-05T08:20:51.627Z,75.35
2022-11-05T08:21:51.644Z,75.07
2022-11-05T08:22:51.662Z,75.07
2022-11-05T08:23:51.417Z,75.26
2022-11-05T08:24:51.697Z,75.26
2022-11-05T08:25:51.719Z,75.26
2022-11-05T08:26:51.786Z,75.16
2022-11-05T08:27:51.753Z,75.16
2022-11-05T08:28:51.775Z,75.54
2022-11-05T08:29:51.786Z,75.07
2022-11-05T08:30:51.969Z,75.07
2022-11-05T08:31:51.823Z,75.45
2022-11-05T08:32:51.850Z,75.54
2022-11-05T08:33:51.605Z,75.45
2022-11-05T08:34:51.881Z,75.45
2022-11-05T08:35:51.896Z,75.07
2022-11-05T08:36:51.923Z,75.35
2022-11-05T08:37:51.933Z,75.07
2022-11-05T08:38:51.966Z,75.16
2022-11-05T08:39:51.982Z,75.26
2022-11-05T08:40:51.733Z,74.98
2022-11-05T08:41:51.760Z,74.88
2022-11-05T08:42:52.112Z,74.98
2022-11-05T08:43:52.048Z,74.98
2022-11-05T08:44:52.128Z,75.07
2022-11-05T08:45:52.166Z,75.26
2022-11-05T08:46:52.106Z,75.16
2022-11-05T08:47:52.124Z,75.26
2022-11-05T08:48:52.150Z,74.78
2022-11-05T08:49:52.163Z,74.88
2022-11-05T08:50:52.176Z,74.88
2022-11-05T08:51:52.200Z,74.98
2022-11-05T08:52:52.209Z,75.16
2022-11-05T08:53:52.264Z,74.98
2022-11-05T08:54:52.255Z,75.16
2022-11-05T08:55:52.277Z,75.07
2022-11-05T08:56:52.294Z,74.98
2022-11-05T08:57:52.053Z,75.07
2022-11-05T08:58:52.373Z,74.98
2022-11-05T08:59:52.356Z,74.49
2022-11-05T09:00:52.582Z,74.59
2022-11-05T09:01:52.710Z,74.4
2022-11-05T09:02:52.142Z,75.16
2022-11-05T09:03:52.428Z,74.69
2022-11-05T09:04:52.440Z,74.59
2022-11-05T09:05:52.203Z,74.49
2022-11-05T09:06:52.474Z,74.3
2022-11-05T09:07:55.261Z,74.4
2022-11-05T09:08:52.516Z,74.3
2022-11-05T09:09:52.542Z,74.4
2022-11-05T09:10:52.559Z,74.49
2022-11-05T09:12:13.699Z,74.4
2022-11-05T09:12:52.590Z,74.21
2022-11-05T09:13:52.608Z,74.4
2022-11-05T09:14:52.679Z,74.4
2022-11-05T09:15:52.394Z,74.4
2022-11-05T09:16:52.408Z,74.59
2022-11-05T09:17:52.693Z,74.59
2022-11-05T09:18:52.700Z,74.4
2022-11-05T09:19:52.723Z,74.4
2022-11-05T09:20:52.744Z,74.49
2022-11-05T09:21:52.760Z,74.49
2022-11-05T09:22:52.525Z,74.4
2022-11-05T09:23:52.798Z,74.49
2022-11-05T09:24:52.808Z,74.4
2022-11-05T09:25:52.842Z,74.69
2022-11-05T09:26:52.847Z,74.4
2022-11-05T09:27:52.875Z,74.49
2022-11-05T09:28:52.894Z,74.59
2022-11-05T09:29:52.907Z,74.4
2022-11-05T09:30:52.971Z,74.69
2022-11-05T09:31:52.697Z,74.78
2022-11-05T09:32:52.963Z,74.49
2022-11-05T09:33:52.725Z,74.63
2022-11-05T09:34:53.007Z,74.59
2022-11-05T09:35:52.769Z,74.59
2022-11-05T09:36:53.041Z,74.59
2022-11-05T09:37:55.585Z,74.49
2022-11-05T09:38:53.073Z,74.59
2022-11-05T09:39:53.097Z,74.78
2022-11-05T09:40:53.112Z,74.59
2022-11-05T09:41:53.136Z,74.59
2022-11-05T09:42:53.150Z,74.21
2022-11-05T09:43:53.164Z,74.59
2022-11-05T09:44:53.241Z,74.78
2022-11-05T09:45:53.202Z,74.69
2022-11-05T09:46:53.307Z,74.59
2022-11-05T09:47:53.242Z,74.3
2022-11-05T09:48:53.266Z,74.3
2022-11-05T09:49:53.288Z,74.3
2022-11-05T09:50:53.304Z,74.21
2022-11-05T09:51:53.317Z,74.21
2022-11-05T09:52:53.085Z,74.98
2022-11-05T09:53:53.096Z,74.21
2022-11-05T09:54:53.374Z,74.3
2022-11-05T09:55:53.395Z,74.24
2022-11-05T09:56:53.157Z,74.11
2022-11-05T09:57:53.173Z,74.21
2022-11-05T09:58:53.453Z,74.21
2022-11-05T09:59:53.468Z,74.49
2022-11-05T10:00:53.577Z,74.34
2022-11-05T10:01:53.804Z,74.59
2022-11-05T10:02:53.578Z,74.44
2022-11-05T10:03:53.281Z,74.3
2022-11-05T10:04:53.761Z,74.15
2022-11-05T10:05:53.862Z,74.34
2022-11-05T10:06:53.342Z,74.24
2022-11-05T10:07:53.623Z,74.53
2022-11-05T10:08:53.634Z,74.53
2022-11-05T10:09:53.397Z,74.34
2022-11-05T10:10:53.683Z,74.53
2022-11-05T10:11:53.694Z,74.53
2022-11-05T10:12:53.715Z,74.34
2022-11-05T10:13:53.725Z,74.05
2022-11-05T10:14:53.750Z,74.34
2022-11-05T10:15:53.513Z,73.96
2022-11-05T10:16:53.785Z,74.05
2022-11-05T10:17:53.806Z,73.96
2022-11-05T10:18:53.879Z,73.96
2022-11-05T10:19:53.843Z,74.34
2022-11-05T10:20:53.869Z,74.24
2022-11-05T10:22:08.680Z,73.96
2022-11-05T10:22:53.899Z,73.96
2022-11-05T10:23:53.918Z,73.96
2022-11-05T10:24:53.939Z,73.96
2022-11-05T10:25:53.974Z,74.34
2022-11-05T10:26:53.979Z,74.15
2022-11-05T10:27:53.734Z,74.15
2022-11-05T10:28:54.017Z,74.24
2022-11-05T10:29:53.777Z,74.44
2022-11-05T10:30:53.795Z,74.24
2022-11-05T10:31:54.075Z,74.24
2022-11-05T10:32:54.087Z,74.53
2022-11-05T10:33:54.109Z,74.73
2022-11-05T10:34:54.174Z,74.82
2022-11-05T10:35:54.146Z,74.91
2022-11-05T10:36:54.162Z,75.01
2022-11-05T10:37:54.191Z,75.01
2022-11-05T10:38:54.203Z,74.82
2022-11-05T10:39:54.299Z,75.01
2022-11-05T10:40:54.243Z,75.39
2022-11-05T10:41:54.281Z,75.3
2022-11-05T10:42:54.026Z,75.78
2022-11-05T10:43:54.304Z,75.39
2022-11-05T10:44:54.160Z,76.25
2022-11-05T10:45:54.327Z,75.87
2022-11-05T10:46:54.100Z,75.87
2022-11-05T10:47:54.132Z,75.96
2022-11-05T10:48:54.392Z,75.68
2022-11-05T10:49:54.140Z,75.96
2022-11-05T10:50:54.635Z,75.87
2022-11-05T10:51:54.459Z,75.68
2022-11-05T10:52:54.207Z,75.68
2022-11-05T10:54:02.040Z,75.96
2022-11-05T10:54:54.250Z,76.06
2022-11-05T10:55:54.534Z,75.68
2022-11-05T10:56:54.546Z,75.3
2022-11-05T10:57:54.575Z,75.3
2022-11-05T10:58:54.577Z,75.39
2022-11-05T10:59:54.350Z,75.3
2022-11-05T11:00:54.904Z,75.1
2022-11-05T11:01:54.675Z,75.39
2022-11-05T11:02:54.671Z,75.3
2022-11-05T11:03:54.680Z,74.95
2022-11-05T11:04:54.696Z,75.05
2022-11-05T11:05:54.718Z,75.24
2022-11-05T11:06:54.782Z,75.05
2022-11-05T11:07:54.757Z,74.85
2022-11-05T11:08:54.780Z,74.85
2022-11-05T11:09:54.824Z,74.85
2022-11-05T11:10:54.574Z,74.82
2022-11-05T11:11:54.830Z,75.24
2022-11-05T11:12:54.854Z,75.05
2022-11-05T11:13:54.870Z,74.48
2022-11-05T11:14:54.888Z,74.66
2022-11-05T11:15:54.914Z,74.38
2022-11-05T11:16:54.929Z,74.66
2022-11-05T11:17:54.946Z,74.48
2022-11-05T11:18:54.709Z,74.76
2022-11-05T11:19:54.983Z,74.38
2022-11-05T11:20:54.742Z,74.28
2022-11-05T11:21:55.023Z,74.66
2022-11-05T11:22:55.267Z,74.38
2022-11-05T11:23:55.070Z,74.28
2022-11-05T11:24:55.082Z,74.28
2022-11-05T11:25:55.096Z,74.38
2022-11-05T11:26:55.116Z,74.19
2022-11-05T11:27:54.889Z,74.19
2022-11-05T11:28:55.160Z,73.71
2022-11-05T11:29:55.175Z,73.61
2022-11-05T11:30:54.939Z,73.55
2022-11-05T11:31:55.214Z,73.61
2022-11-05T11:32:55.232Z,73.52
2022-11-05T11:33:55.250Z,73.61
2022-11-05T11:34:55.026Z,73.55
2022-11-05T11:35:55.292Z,73.8
2022-11-05T11:36:55.060Z,73.9
2022-11-05T11:37:55.330Z,74.04
2022-11-05T11:38:55.399Z,74.38
2022-11-05T11:39:55.112Z,74.04
2022-11-05T11:40:55.395Z,74.19
2022-11-05T11:41:55.419Z,73.9
2022-11-05T11:42:55.427Z,73.99
2022-11-05T11:43:55.186Z,74.57
2022-11-05T11:44:55.670Z,74.38
2022-11-05T11:45:58.311Z,74.38
2022-11-05T11:46:55.505Z,74.32
2022-11-05T11:47:55.524Z,74.38
2022-11-05T11:48:55.298Z,74.13
2022-11-05T11:49:55.569Z,74.51
2022-11-05T11:50:55.589Z,73.94
2022-11-05T11:51:55.599Z,74.22
2022-11-05T11:52:55.359Z,74.13
2022-11-05T11:53:55.389Z,74.13
2022-11-05T11:54:55.706Z,73.94
2022-11-05T11:55:55.687Z,74.22
2022-11-05T11:56:55.702Z,73.84
2022-11-05T11:57:55.722Z,74.04
2022-11-05T11:58:55.750Z,73.75
2022-11-05T12:00:11.335Z,73.65
2022-11-05T12:00:55.781Z,73.46
2022-11-05T12:01:56.065Z,73.46
2022-11-05T12:03:02.179Z,73.27
2022-11-05T12:03:55.832Z,73.65
2022-11-05T12:04:55.601Z,73.75
2022-11-05T12:05:55.878Z,74.32
2022-11-05T12:06:55.900Z,74.13
2022-11-05T12:07:55.664Z,73.75
2022-11-05T12:09:06.889Z,73.65
2022-11-05T12:09:55.700Z,73.65
2022-11-05T12:10:56.036Z,73.46
2022-11-05T12:11:55.993Z,73.55
2022-11-05T12:12:55.758Z,73.55
2022-11-05T12:13:56.034Z,73.55
2022-11-05T12:14:56.053Z,73.55
2022-11-05T12:15:56.079Z,73.46
2022-11-05T12:16:56.085Z,73.36
2022-11-05T12:17:55.856Z,73.27
2022-11-05T12:18:56.136Z,73.55
2022-11-05T12:19:55.891Z,73.46
2022-11-05T12:21:00.383Z,73.94
2022-11-05T12:21:56.189Z,73.75
2022-11-05T12:22:56.219Z,73.65
2022-11-05T12:23:56.230Z,73.55
2022-11-05T12:24:56.245Z,73.75
2022-11-05T12:25:56.276Z,73.65
2022-11-05T12:26:56.364Z,73.69
2022-11-05T12:27:56.327Z,73.65
2022-11-05T12:29:19.897Z,73.17
2022-11-05T12:29:56.377Z,73.21
2022-11-05T12:30:56.372Z,73.11
2022-11-05T12:31:56.135Z,73.11
2022-11-05T12:32:56.688Z,73.21
2022-11-05T12:33:56.173Z,73.3
2022-11-05T12:34:56.446Z,73.27
2022-11-05T12:36:00.128Z,73.5
2022-11-05T12:36:56.487Z,73.17
2022-11-05T12:37:56.509Z,73.02
2022-11-05T12:38:56.272Z,73.02
2022-11-05T12:39:56.700Z,73.02
2022-11-05T12:40:56.570Z,72.44
2022-11-05T12:41:56.578Z,72.54
2022-11-05T12:42:56.649Z,73.3
2022-11-05T12:43:56.631Z,72.83
2022-11-05T12:44:56.852Z,73.02
2022-11-05T12:45:56.679Z,73.02
2022-11-05T12:46:56.428Z,73.3
2022-11-05T12:47:56.697Z,73.02
2022-11-05T12:48:56.726Z,73.02
2022-11-05T12:49:56.742Z,72.92
2022-11-05T12:50:56.761Z,72.83
2022-11-05T12:51:56.786Z,72.79
2022-11-05T12:52:56.800Z,73.02
2022-11-05T12:53:56.837Z,73.02
2022-11-05T12:54:56.851Z,72.83
2022-11-05T12:55:56.868Z,72.83
2022-11-05T12:56:56.888Z,72.98